sensor_id;sensor_type;location;lat;lon;timestamp;pressure;altitude;pressure_sealevel;temperature;humidity
62847;BME280;49477;35.676;139.586;2023-04-30T00:01:45;99649.09;;;27.67;38.57
62847;BME280;49477;35.676;139.586;2023-04-30T00:04:15;99646.09;;;27.40;38.47
62847;BME280;49477;35.676;139.586;2023-04-30T00:06:44;99659.96;;;27.42;39.55
62847;BME280;49477;35.676;139.586;2023-04-30T00:09:13;99666.78;;;27.72;39.00
62847;BME280;49477;35.676;139.586;2023-04-30T00:11:43;99667.62;;;27.71;38.89
62847;BME280;49477;35.676;139.586;2023-04-30T00:14:12;99658.28;;;27.42;39.12
62847;BME280;49477;35.676;139.586;2023-04-30T00:16:41;99676.62;;;27.39;38.89
62847;BME280;49477;35.676;139.586;2023-04-30T00:19:11;99657.33;;;27.40;39.13
62847;BME280;49477;35.676;139.586;2023-04-30T00:21:41;99671.61;;;27.17;39.25
62847;BME280;49477;35.676;139.586;2023-04-30T00:24:10;99691.61;;;27.39;38.80
62847;BME280;49477;35.676;139.586;2023-04-30T00:26:39;99697.15;;;27.39;38.75
62847;BME280;49477;35.676;139.586;2023-04-30T00:29:09;99698.71;;;27.37;38.69
62847;BME280;49477;35.676;139.586;2023-04-30T00:31:39;99717.19;;;27.61;38.77
62847;BME280;49477;35.676;139.586;2023-04-30T00:34:08;99715.68;;;27.34;38.76
62847;BME280;49477;35.676;139.586;2023-04-30T00:36:38;99725.57;;;27.14;38.66
62847;BME280;49477;35.676;139.586;2023-04-30T00:39:07;99718.78;;;27.36;38.67
62847;BME280;49477;35.676;139.586;2023-04-30T00:41:36;99746.33;;;27.37;38.61
62847;BME280;49477;35.676;139.586;2023-04-30T00:44:06;99739.23;;;27.65;38.64
62847;BME280;49477;35.676;139.586;2023-04-30T00:46:35;99744.07;;;27.15;38.49
62847;BME280;49477;35.676;139.586;2023-04-30T00:49:05;99747.75;;;27.65;38.54
62847;BME280;49477;35.676;139.586;2023-04-30T00:51:35;99756.09;;;27.36;38.55
62847;BME280;49477;35.676;139.586;2023-04-30T00:54:05;99753.83;;;27.14;38.52
62847;BME280;49477;35.676;139.586;2023-04-30T00:56:34;99767.14;;;27.16;38.43
62847;BME280;49477;35.676;139.586;2023-04-30T00:59:04;99771.09;;;27.38;38.25
62847;BME280;49477;35.676;139.586;2023-04-30T01:01:33;99766.76;;;27.37;38.28
62847;BME280;49477;35.676;139.586;2023-04-30T01:04:03;99764.70;;;27.60;38.35
62847;BME280;49477;35.676;139.586;2023-04-30T01:06:33;99758.28;;;27.11;38.28
62847;BME280;49477;35.676;139.586;2023-04-30T01:09:02;99755.91;;;27.33;38.19
62847;BME280;49477;35.676;139.586;2023-04-30T01:11:45;99759.55;;;27.33;38.21
62847;BME280;49477;35.676;139.586;2023-04-30T01:14:21;99762.18;;;27.34;37.74
62847;BME280;49477;35.676;139.586;2023-04-30T01:17:01;99761.52;;;27.64;37.45
62847;BME280;49477;35.676;139.586;2023-04-30T01:19:40;99764.17;;;27.30;37.53
62847;BME280;49477;35.676;139.586;2023-04-30T01:22:13;99778.38;;;27.29;37.54
62847;BME280;49477;35.676;139.586;2023-04-30T01:25:07;99786.60;;;27.52;37.52
62847;BME280;49477;35.676;139.586;2023-04-30T01:28:00;99782.57;;;27.27;37.49
62847;BME280;49477;35.676;139.586;2023-04-30T01:30:31;99785.82;;;27.28;37.45
62847;BME280;49477;35.676;139.586;2023-04-30T01:33:02;99781.30;;;27.26;37.42
62847;BME280;49477;35.676;139.586;2023-04-30T01:35:53;99769.81;;;27.26;37.39
62847;BME280;49477;35.676;139.586;2023-04-30T01:38:36;99784.61;;;27.24;37.33
62847;BME280;49477;35.676;139.586;2023-04-30T01:41:16;99781.76;;;27.51;37.33
62847;BME280;49477;35.676;139.586;2023-04-30T01:43:59;99780.74;;;27.52;37.28
62847;BME280;49477;35.676;139.586;2023-04-30T01:46:32;99781.53;;;27.05;37.20
62847;BME280;49477;35.676;139.586;2023-04-30T01:49:09;99767.36;;;27.51;37.19
62847;BME280;49477;35.676;139.586;2023-04-30T01:51:42;99761.79;;;27.27;37.08
62847;BME280;49477;35.676;139.586;2023-04-30T01:54:18;99768.47;;;27.56;37.05
62847;BME280;49477;35.676;139.586;2023-04-30T01:56:56;99760.01;;;27.31;36.95
62847;BME280;49477;35.676;139.586;2023-04-30T01:59:30;99755.64;;;27.58;36.95
62847;BME280;49477;35.676;139.586;2023-04-30T02:01:59;99758.96;;;27.60;36.95
62847;BME280;49477;35.676;139.586;2023-04-30T02:04:30;99748.12;;;27.64;36.87
62847;BME280;49477;35.676;139.586;2023-04-30T02:06:59;99753.00;;;27.23;36.67
62847;BME280;49477;35.676;139.586;2023-04-30T02:09:28;99753.62;;;27.49;36.57
62847;BME280;49477;35.676;139.586;2023-04-30T02:11:57;99751.61;;;27.33;36.59
62847;BME280;49477;35.676;139.586;2023-04-30T02:14:29;99748.37;;;27.37;36.57
62847;BME280;49477;35.676;139.586;2023-04-30T02:16:58;99739.06;;;27.42;36.54
62847;BME280;49477;35.676;139.586;2023-04-30T02:19:28;99720.67;;;27.73;36.45
62847;BME280;49477;35.676;139.586;2023-04-30T02:21:57;99713.88;;;27.55;36.48
62847;BME280;49477;35.676;139.586;2023-04-30T02:24:27;99715.66;;;27.82;36.33
62847;BME280;49477;35.676;139.586;2023-04-30T02:26:56;99708.44;;;27.85;36.49
62847;BME280;49477;35.676;139.586;2023-04-30T02:29:26;99710.14;;;27.91;36.49
62847;BME280;49477;35.676;139.586;2023-04-30T02:31:57;99715.20;;;27.75;36.55
62847;BME280;49477;35.676;139.586;2023-04-30T02:34:28;99696.89;;;27.81;36.51
62847;BME280;49477;35.676;139.586;2023-04-30T02:36:57;99683.60;;;27.90;36.38
62847;BME280;49477;35.676;139.586;2023-04-30T02:39:26;99670.14;;;28.17;36.35
62847;BME280;49477;35.676;139.586;2023-04-30T02:41:55;99668.21;;;27.78;36.30
62847;BME280;49477;35.676;139.586;2023-04-30T02:44:25;99660.08;;;28.06;36.31
62847;BME280;49477;35.676;139.586;2023-04-30T02:46:54;99638.40;;;28.15;36.31
62847;BME280;49477;35.676;139.586;2023-04-30T02:49:24;99647.30;;;28.44;36.16
62847;BME280;49477;35.676;139.586;2023-04-30T02:51:53;99660.52;;;28.29;36.14
62847;BME280;49477;35.676;139.586;2023-04-30T02:54:23;99653.62;;;28.10;36.08
62847;BME280;49477;35.676;139.586;2023-04-30T02:56:53;99660.06;;;28.11;36.10
62847;BME280;49477;35.676;139.586;2023-04-30T02:59:23;99674.71;;;28.31;36.08
62847;BME280;49477;35.676;139.586;2023-04-30T03:01:52;99692.83;;;28.31;36.13
62847;BME280;49477;35.676;139.586;2023-04-30T03:04:22;99684.11;;;28.32;36.05
62847;BME280;49477;35.676;139.586;2023-04-30T03:06:51;99690.52;;;27.89;36.04
62847;BME280;49477;35.676;139.586;2023-04-30T03:09:20;99697.11;;;28.40;36.04
62847;BME280;49477;35.676;139.586;2023-04-30T03:11:50;99698.81;;;28.44;35.94
62847;BME280;49477;35.676;139.586;2023-04-30T03:14:19;99698.91;;;28.46;35.89
62847;BME280;49477;35.676;139.586;2023-04-30T03:16:49;99683.79;;;28.50;35.84
62847;BME280;49477;35.676;139.586;2023-04-30T03:19:18;99684.75;;;28.32;35.80
62847;BME280;49477;35.676;139.586;2023-04-30T03:21:48;99693.14;;;28.35;35.77
62847;BME280;49477;35.676;139.586;2023-04-30T03:24:17;99693.77;;;28.59;35.77
62847;BME280;49477;35.676;139.586;2023-04-30T03:26:46;99691.97;;;28.41;35.77
62847;BME280;49477;35.676;139.586;2023-04-30T03:29:16;99689.26;;;28.46;35.73
62847;BME280;49477;35.676;139.586;2023-04-30T03:31:45;99698.76;;;28.49;35.72
62847;BME280;49477;35.676;139.586;2023-04-30T03:34:14;99702.45;;;28.54;35.69
62847;BME280;49477;35.676;139.586;2023-04-30T03:36:44;99706.89;;;28.55;35.66
62847;BME280;49477;35.676;139.586;2023-04-30T03:39:13;99723.26;;;28.42;35.43
62847;BME280;49477;35.676;139.586;2023-04-30T03:41:42;99724.87;;;28.89;35.48
62847;BME280;49477;35.676;139.586;2023-04-30T03:44:12;99719.82;;;28.64;35.54
62847;BME280;49477;35.676;139.586;2023-04-30T03:46:42;99712.55;;;28.64;35.54
62847;BME280;49477;35.676;139.586;2023-04-30T03:49:11;99701.68;;;28.66;35.57
62847;BME280;49477;35.676;139.586;2023-04-30T03:51:41;99695.73;;;28.67;35.58
62847;BME280;49477;35.676;139.586;2023-04-30T03:54:11;99680.37;;;28.64;35.80
62847;BME280;49477;35.676;139.586;2023-04-30T03:56:40;99680.63;;;28.37;36.07
62847;BME280;49477;35.676;139.586;2023-04-30T03:59:10;99697.24;;;28.40;36.42
62847;BME280;49477;35.676;139.586;2023-04-30T04:01:39;99703.35;;;28.43;36.78
62847;BME280;49477;35.676;139.586;2023-04-30T04:04:09;99698.32;;;28.74;36.97
62847;BME280;49477;35.676;139.586;2023-04-30T04:06:38;99696.63;;;28.57;37.02
62847;BME280;49477;35.676;139.586;2023-04-30T04:09:08;99694.44;;;28.57;37.08
62847;BME280;49477;35.676;139.586;2023-04-30T04:11:37;99692.82;;;29.06;37.18
62847;BME280;49477;35.676;139.586;2023-04-30T04:14:06;99704.15;;;29.07;37.16
62847;BME280;49477;35.676;139.586;2023-04-30T04:16:36;99715.14;;;28.88;37.17
62847;BME280;49477;35.676;139.586;2023-04-30T04:19:05;99720.77;;;28.60;37.12
62847;BME280;49477;35.676;139.586;2023-04-30T04:21:35;99718.79;;;28.62;37.13
62847;BME280;49477;35.676;139.586;2023-04-30T04:24:04;99722.07;;;28.63;37.06
62847;BME280;49477;35.676;139.586;2023-04-30T04:26:34;99729.07;;;28.64;37.00
62847;BME280;49477;35.676;139.586;2023-04-30T04:29:03;99727.83;;;28.67;36.89
62847;BME280;49477;35.676;139.586;2023-04-30T04:31:33;99724.59;;;28.72;36.79
62847;BME280;49477;35.676;139.586;2023-04-30T04:34:03;99721.99;;;28.72;36.68
62847;BME280;49477;35.676;139.586;2023-04-30T04:36:33;99724.31;;;28.74;36.55
62847;BME280;49477;35.676;139.586;2023-04-30T04:39:02;99729.27;;;28.77;36.47
62847;BME280;49477;35.676;139.586;2023-04-30T04:41:33;99726.91;;;28.79;36.39
62847;BME280;49477;35.676;139.586;2023-04-30T04:44:03;99722.51;;;28.81;36.34
62847;BME280;49477;35.676;139.586;2023-04-30T04:46:32;99728.56;;;28.82;36.27
62847;BME280;49477;35.676;139.586;2023-04-30T04:49:02;99737.97;;;28.80;36.27
62847;BME280;49477;35.676;139.586;2023-04-30T04:51:31;99739.90;;;28.80;36.25
62847;BME280;49477;35.676;139.586;2023-04-30T04:54:00;99746.55;;;28.81;36.17
62847;BME280;49477;35.676;139.586;2023-04-30T04:56:30;99752.10;;;29.08;36.14
62847;BME280;49477;35.676;139.586;2023-04-30T04:59:00;99745.09;;;28.78;36.10
62847;BME280;49477;35.676;139.586;2023-04-30T05:01:29;99743.86;;;29.05;36.09
62847;BME280;49477;35.676;139.586;2023-04-30T05:03:58;99743.61;;;28.77;36.06
62847;BME280;49477;35.676;139.586;2023-04-30T05:06:28;99737.46;;;29.05;36.00
62847;BME280;49477;35.676;139.586;2023-04-30T05:08:57;99735.36;;;28.76;35.97
62847;BME280;49477;35.676;139.586;2023-04-30T05:11:27;99738.06;;;28.76;35.94
62847;BME280;49477;35.676;139.586;2023-04-30T05:13:57;99738.80;;;28.77;35.93
62847;BME280;49477;35.676;139.586;2023-04-30T05:16:26;99727.71;;;28.78;35.90
62847;BME280;49477;35.676;139.586;2023-04-30T05:18:56;99727.23;;;28.75;35.91
62847;BME280;49477;35.676;139.586;2023-04-30T05:21:25;99741.63;;;28.76;35.91
62847;BME280;49477;35.676;139.586;2023-04-30T05:23:55;99760.01;;;28.74;35.96
62847;BME280;49477;35.676;139.586;2023-04-30T05:26:24;99761.84;;;28.75;35.98
62847;BME280;49477;35.676;139.586;2023-04-30T05:28:53;99753.44;;;28.74;36.03
62847;BME280;49477;35.676;139.586;2023-04-30T05:31:23;99747.70;;;28.76;36.05
62847;BME280;49477;35.676;139.586;2023-04-30T05:33:52;99749.11;;;28.74;36.13
62847;BME280;49477;35.676;139.586;2023-04-30T05:36:22;99746.07;;;28.71;36.18
62847;BME280;49477;35.676;139.586;2023-04-30T05:38:51;99740.71;;;28.69;36.25
62847;BME280;49477;35.676;139.586;2023-04-30T05:41:21;99745.01;;;28.68;36.33
62847;BME280;49477;35.676;139.586;2023-04-30T05:43:50;99750.19;;;28.67;36.36
62847;BME280;49477;35.676;139.586;2023-04-30T05:46:19;99753.51;;;28.66;36.40
62847;BME280;49477;35.676;139.586;2023-04-30T05:48:49;99751.67;;;28.64;36.48
62847;BME280;49477;35.676;139.586;2023-04-30T05:51:19;99753.28;;;28.90;36.52
62847;BME280;49477;35.676;139.586;2023-04-30T05:53:48;99749.84;;;28.64;36.51
62847;BME280;49477;35.676;139.586;2023-04-30T05:56:18;99744.80;;;28.67;36.50
62847;BME280;49477;35.676;139.586;2023-04-30T05:58:47;99747.47;;;28.97;36.53
62847;BME280;49477;35.676;139.586;2023-04-30T06:01:17;99751.56;;;28.69;36.62
62847;BME280;49477;35.676;139.586;2023-04-30T06:03:46;99753.21;;;28.68;36.68
62847;BME280;49477;35.676;139.586;2023-04-30T06:06:15;99753.25;;;28.95;36.73
62847;BME280;49477;35.676;139.586;2023-04-30T06:08:45;99748.68;;;28.95;36.79
62847;BME280;49477;35.676;139.586;2023-04-30T06:11:15;99747.72;;;28.95;36.79
62847;BME280;49477;35.676;139.586;2023-04-30T06:13:45;99748.18;;;28.68;36.79
62847;BME280;49477;35.676;139.586;2023-04-30T06:16:14;99746.82;;;28.68;36.81
62847;BME280;49477;35.676;139.586;2023-04-30T06:18:44;99746.55;;;28.67;36.89
62847;BME280;49477;35.676;139.586;2023-04-30T06:21:13;99740.56;;;28.66;36.93
62847;BME280;49477;35.676;139.586;2023-04-30T06:23:43;99734.84;;;28.64;36.95
62847;BME280;49477;35.676;139.586;2023-04-30T06:26:13;99727.56;;;28.65;36.93
62847;BME280;49477;35.676;139.586;2023-04-30T06:28:42;99735.69;;;28.65;36.92
62847;BME280;49477;35.676;139.586;2023-04-30T06:31:11;99734.84;;;28.92;36.94
62847;BME280;49477;35.676;139.586;2023-04-30T06:33:41;99743.60;;;29.15;36.93
62847;BME280;49477;35.676;139.586;2023-04-30T06:36:10;99748.35;;;28.65;36.96
62847;BME280;49477;35.676;139.586;2023-04-30T06:38:40;99748.43;;;28.65;36.99
62847;BME280;49477;35.676;139.586;2023-04-30T06:41:09;99747.49;;;28.89;37.01
62847;BME280;49477;35.676;139.586;2023-04-30T06:43:39;99747.18;;;28.61;37.05
62847;BME280;49477;35.676;139.586;2023-04-30T06:46:08;99750.06;;;28.61;37.07
62847;BME280;49477;35.676;139.586;2023-04-30T06:48:38;99757.70;;;28.60;37.09
62847;BME280;49477;35.676;139.586;2023-04-30T06:51:07;99756.52;;;28.86;37.09
62847;BME280;49477;35.676;139.586;2023-04-30T06:53:37;99760.74;;;28.85;37.10
62847;BME280;49477;35.676;139.586;2023-04-30T06:56:07;99762.29;;;28.84;37.10
62847;BME280;49477;35.676;139.586;2023-04-30T06:58:36;99768.70;;;28.57;37.09
62847;BME280;49477;35.676;139.586;2023-04-30T07:01:05;99773.72;;;28.55;37.09
62847;BME280;49477;35.676;139.586;2023-04-30T07:03:35;99773.15;;;28.53;37.08
62847;BME280;49477;35.676;139.586;2023-04-30T07:06:05;99771.22;;;28.78;37.06
62847;BME280;49477;35.676;139.586;2023-04-30T07:08:33;99775.56;;;28.52;37.02
62847;BME280;49477;35.676;139.586;2023-04-30T07:11:03;99785.74;;;28.77;37.01
62847;BME280;49477;35.676;139.586;2023-04-30T07:13:32;99798.49;;;28.76;36.96
62847;BME280;49477;35.676;139.586;2023-04-30T07:16:02;99797.16;;;28.74;37.00
62847;BME280;49477;35.676;139.586;2023-04-30T07:18:31;99800.36;;;28.74;36.98
62847;BME280;49477;35.676;139.586;2023-04-30T07:21:01;99810.00;;;28.47;36.98
62847;BME280;49477;35.676;139.586;2023-04-30T07:23:30;99807.25;;;28.45;36.98
62847;BME280;49477;35.676;139.586;2023-04-30T07:26:00;99804.77;;;28.70;36.97
62847;BME280;49477;35.676;139.586;2023-04-30T07:28:29;99809.80;;;28.68;36.98
62847;BME280;49477;35.676;139.586;2023-04-30T07:30:59;99809.93;;;28.65;37.04
62847;BME280;49477;35.676;139.586;2023-04-30T07:33:28;99798.48;;;28.64;37.04
62847;BME280;49477;35.676;139.586;2023-04-30T07:35:58;99796.49;;;28.83;37.04
62847;BME280;49477;35.676;139.586;2023-04-30T07:38:27;99793.62;;;28.33;37.03
62847;BME280;49477;35.676;139.586;2023-04-30T07:40:57;99793.98;;;28.58;36.99
62847;BME280;49477;35.676;139.586;2023-04-30T07:43:27;99794.08;;;28.56;36.99
62847;BME280;49477;35.676;139.586;2023-04-30T07:45:57;99786.37;;;28.74;37.00
62847;BME280;49477;35.676;139.586;2023-04-30T07:48:26;99784.74;;;28.25;36.96
62847;BME280;49477;35.676;139.586;2023-04-30T07:51:00;99777.40;;;28.25;36.91
62847;BME280;49477;35.676;139.586;2023-04-30T07:53:29;99784.84;;;28.52;36.81
62847;BME280;49477;35.676;139.586;2023-04-30T07:55:59;99804.29;;;28.50;36.80
62847;BME280;49477;35.676;139.586;2023-04-30T07:58:28;99821.99;;;28.47;36.71
62847;BME280;49477;35.676;139.586;2023-04-30T08:00:58;99831.83;;;28.44;36.70
62847;BME280;49477;35.676;139.586;2023-04-30T08:03:27;99823.69;;;28.64;36.68
62847;BME280;49477;35.676;139.586;2023-04-30T08:05:56;99817.71;;;28.39;36.63
62847;BME280;49477;35.676;139.586;2023-04-30T08:08:26;99838.44;;;28.80;36.62
62847;BME280;49477;35.676;139.586;2023-04-30T08:10:55;99846.14;;;28.58;36.60
62847;BME280;49477;35.676;139.586;2023-04-30T08:13:25;99839.61;;;28.33;36.58
62847;BME280;49477;35.676;139.586;2023-04-30T08:15:55;99833.99;;;28.33;36.58
62847;BME280;49477;35.676;139.586;2023-04-30T08:18:24;99842.70;;;28.55;36.55
62847;BME280;49477;35.676;139.586;2023-04-30T08:20:54;99859.04;;;28.30;36.54
62847;BME280;49477;35.676;139.586;2023-04-30T08:23:23;99858.43;;;28.31;36.50
62847;BME280;49477;35.676;139.586;2023-04-30T08:25:53;99854.65;;;28.52;36.46
62847;BME280;49477;35.676;139.586;2023-04-30T08:28:22;99845.58;;;28.52;36.46
62847;BME280;49477;35.676;139.586;2023-04-30T08:30:51;99846.56;;;28.27;36.41
62847;BME280;49477;35.676;139.586;2023-04-30T08:33:21;99849.57;;;28.47;36.42
62847;BME280;49477;35.676;139.586;2023-04-30T08:35:50;99856.40;;;28.45;36.41
62847;BME280;49477;35.676;139.586;2023-04-30T08:38:20;99863.71;;;28.43;36.37
62847;BME280;49477;35.676;139.586;2023-04-30T08:40:58;99869.00;;;28.43;36.37
62847;BME280;49477;35.676;139.586;2023-04-30T08:43:34;99871.37;;;27.96;36.38
62847;BME280;49477;35.676;139.586;2023-04-30T08:46:05;99877.16;;;28.44;36.37
62847;BME280;49477;35.676;139.586;2023-04-30T08:48:35;99876.50;;;28.18;36.39
62847;BME280;49477;35.676;139.586;2023-04-30T08:51:04;99879.11;;;28.41;36.35
62847;BME280;49477;35.676;139.586;2023-04-30T08:53:36;99876.86;;;28.40;36.35
62847;BME280;49477;35.676;139.586;2023-04-30T08:56:05;99874.70;;;28.16;36.38
62847;BME280;49477;35.676;139.586;2023-04-30T08:58:34;99881.93;;;28.14;36.39
62847;BME280;49477;35.676;139.586;2023-04-30T09:01:06;99893.06;;;28.56;36.41
62847;BME280;49477;35.676;139.586;2023-04-30T09:03:35;99903.99;;;28.33;36.44
62847;BME280;49477;35.676;139.586;2023-04-30T09:06:05;99921.43;;;28.10;36.45
62847;BME280;49477;35.676;139.586;2023-04-30T09:08:42;99932.24;;;27.85;36.46
62847;BME280;49477;35.676;139.586;2023-04-30T09:11:29;99942.73;;;28.09;36.50
62847;BME280;49477;35.676;139.586;2023-04-30T09:13:59;99949.96;;;28.29;36.50
62847;BME280;49477;35.676;139.586;2023-04-30T09:16:44;99955.41;;;28.26;36.85
62847;BME280;49477;35.676;139.586;2023-04-30T09:19:23;99960.40;;;28.24;37.13
62847;BME280;49477;35.676;139.586;2023-04-30T09:21:54;99963.65;;;28.05;36.67
62847;BME280;49477;35.676;139.586;2023-04-30T09:24:23;99962.67;;;28.27;36.75
62847;BME280;49477;35.676;139.586;2023-04-30T09:26:54;99965.26;;;28.03;36.66
62847;BME280;49477;35.676;139.586;2023-04-30T09:29:36;99969.44;;;28.21;36.51
62847;BME280;49477;35.676;139.586;2023-04-30T09:32:09;99970.35;;;28.20;36.50
62847;BME280;49477;35.676;139.586;2023-04-30T09:34:38;99966.49;;;28.22;36.44
62847;BME280;49477;35.676;139.586;2023-04-30T09:37:08;99974.66;;;28.19;36.52
62847;BME280;49477;35.676;139.586;2023-04-30T09:39:48;99986.01;;;28.20;36.54
62847;BME280;49477;35.676;139.586;2023-04-30T09:42:17;99990.90;;;28.17;36.59
62847;BME280;49477;35.676;139.586;2023-04-30T09:44:47;100001.81;;;28.16;36.58
62847;BME280;49477;35.676;139.586;2023-04-30T09:47:18;100009.83;;;28.38;36.65
62847;BME280;49477;35.676;139.586;2023-04-30T09:49:49;100010.50;;;27.94;36.63
62847;BME280;49477;35.676;139.586;2023-04-30T09:52:19;100004.01;;;28.15;36.68
62847;BME280;49477;35.676;139.586;2023-04-30T09:54:49;99994.36;;;28.11;36.61
62847;BME280;49477;35.676;139.586;2023-04-30T09:57:22;99984.63;;;28.07;36.68
62847;BME280;49477;35.676;139.586;2023-04-30T09:59:52;99986.28;;;28.06;36.71
62847;BME280;49477;35.676;139.586;2023-04-30T10:02:23;99998.59;;;28.28;36.81
62847;BME280;49477;35.676;139.586;2023-04-30T10:04:56;99992.11;;;28.07;36.94
62847;BME280;49477;35.676;139.586;2023-04-30T10:07:33;100003.85;;;27.86;37.12
62847;BME280;49477;35.676;139.586;2023-04-30T10:10:08;100025.00;;;28.09;37.28
62847;BME280;49477;35.676;139.586;2023-04-30T10:12:46;100019.52;;;28.07;37.23
62847;BME280;49477;35.676;139.586;2023-04-30T10:15:23;100021.65;;;28.05;37.49
62847;BME280;49477;35.676;139.586;2023-04-30T10:17:58;100032.06;;;28.06;37.55
62847;BME280;49477;35.676;139.586;2023-04-30T10:20:29;100033.53;;;28.07;37.76
62847;BME280;49477;35.676;139.586;2023-04-30T10:23:00;100035.50;;;28.29;37.94
62847;BME280;49477;35.676;139.586;2023-04-30T10:25:30;100032.56;;;28.07;37.80
62847;BME280;49477;35.676;139.586;2023-04-30T10:28:00;100039.74;;;28.28;37.99
62847;BME280;49477;35.676;139.586;2023-04-30T10:30:30;100058.66;;;28.06;38.00
62847;BME280;49477;35.676;139.586;2023-04-30T10:33:09;100060.82;;;28.04;38.11
62847;BME280;49477;35.676;139.586;2023-04-30T10:35:48;100067.37;;;28.05;38.11
62847;BME280;49477;35.676;139.586;2023-04-30T10:38:21;100071.06;;;28.29;38.16
62847;BME280;49477;35.676;139.586;2023-04-30T10:40:54;100069.74;;;28.08;38.38
62847;BME280;49477;35.676;139.586;2023-04-30T10:43:24;100069.48;;;28.07;38.26
62847;BME280;49477;35.676;139.586;2023-04-30T10:45:57;100074.85;;;28.06;38.15
62847;BME280;49477;35.676;139.586;2023-04-30T10:48:27;100082.08;;;28.05;38.27
62847;BME280;49477;35.676;139.586;2023-04-30T10:50:58;100092.01;;;28.26;38.40
62847;BME280;49477;35.676;139.586;2023-04-30T10:53:30;100090.41;;;28.00;38.32
62847;BME280;49477;35.676;139.586;2023-04-30T10:56:01;100097.15;;;28.02;38.38
62847;BME280;49477;35.676;139.586;2023-04-30T10:58:32;100111.02;;;28.24;38.56
62847;BME280;49477;35.676;139.586;2023-04-30T11:01:04;100117.55;;;28.00;38.53
62847;BME280;49477;35.676;139.586;2023-04-30T11:03:34;100117.99;;;27.98;38.58
62847;BME280;49477;35.676;139.586;2023-04-30T11:06:10;100119.54;;;27.99;38.61
62847;BME280;49477;35.676;139.586;2023-04-30T11:08:44;100127.04;;;27.98;38.67
62847;BME280;49477;35.676;139.586;2023-04-30T11:11:18;100130.51;;;28.20;38.59
62847;BME280;49477;35.676;139.586;2023-04-30T11:13:57;100106.75;;;27.98;38.59
62847;BME280;49477;35.676;139.586;2023-04-30T11:16:29;100092.80;;;28.19;38.54
62847;BME280;49477;35.676;139.586;2023-04-30T11:19:05;100114.44;;;27.95;38.63
62847;BME280;49477;35.676;139.586;2023-04-30T11:21:40;100130.90;;;27.94;38.73
62847;BME280;49477;35.676;139.586;2023-04-30T11:24:10;100135.21;;;27.92;38.82
62847;BME280;49477;35.676;139.586;2023-04-30T11:27:13;100144.58;;;27.93;38.88
62847;BME280;49477;35.676;139.586;2023-04-30T11:29:43;100137.23;;;27.93;38.73
62847;BME280;49477;35.676;139.586;2023-04-30T11:32:14;100142.43;;;27.70;38.88
62847;BME280;49477;35.676;139.586;2023-04-30T11:34:44;100148.26;;;27.91;38.87
62847;BME280;49477;35.676;139.586;2023-04-30T11:37:20;100166.10;;;27.92;39.02
62847;BME280;49477;35.676;139.586;2023-04-30T11:39:50;100188.77;;;27.89;38.96
62847;BME280;49477;35.676;139.586;2023-04-30T11:42:20;100195.78;;;28.11;38.96
62847;BME280;49477;35.676;139.586;2023-04-30T11:44:49;100196.61;;;28.12;38.94
62847;BME280;49477;35.676;139.586;2023-04-30T11:47:18;100195.41;;;28.13;38.96
62847;BME280;49477;35.676;139.586;2023-04-30T11:49:51;100201.21;;;28.11;38.97
62847;BME280;49477;35.676;139.586;2023-04-30T11:52:23;100202.78;;;28.10;39.06
62847;BME280;49477;35.676;139.586;2023-04-30T11:54:55;100206.02;;;27.89;38.91
62847;BME280;49477;35.676;139.586;2023-04-30T11:57:25;100215.08;;;28.10;38.92
62847;BME280;49477;35.676;139.586;2023-04-30T11:59:54;100218.43;;;27.87;38.97
62847;BME280;49477;35.676;139.586;2023-04-30T12:02:24;100213.22;;;28.06;39.16
62847;BME280;49477;35.676;139.586;2023-04-30T12:04:53;100224.95;;;27.84;39.06
62847;BME280;49477;35.676;139.586;2023-04-30T12:07:23;100226.29;;;27.84;38.94
62847;BME280;49477;35.676;139.586;2023-04-30T12:09:53;100227.20;;;28.04;39.15
62847;BME280;49477;35.676;139.586;2023-04-30T12:12:31;100222.76;;;27.82;39.05
62847;BME280;49477;35.676;139.586;2023-04-30T12:15:11;100225.00;;;27.82;39.13
62847;BME280;49477;35.676;139.586;2023-04-30T12:17:41;100225.70;;;27.83;39.26
62847;BME280;49477;35.676;139.586;2023-04-30T12:20:12;100219.85;;;28.05;39.19
62847;BME280;49477;35.676;139.586;2023-04-30T12:22:43;100229.87;;;27.82;39.24
62847;BME280;49477;35.676;139.586;2023-04-30T12:25:15;100231.76;;;28.04;39.32
62847;BME280;49477;35.676;139.586;2023-04-30T12:27:47;100222.91;;;27.77;39.42
62847;BME280;49477;35.676;139.586;2023-04-30T12:30:19;100228.02;;;27.98;39.28
62847;BME280;49477;35.676;139.586;2023-04-30T12:32:52;100227.79;;;27.75;39.14
62847;BME280;49477;35.676;139.586;2023-04-30T12:35:23;100219.97;;;27.73;39.30
62847;BME280;49477;35.676;139.586;2023-04-30T12:38:00;100210.90;;;27.94;39.21
62847;BME280;49477;35.676;139.586;2023-04-30T12:40:30;100229.15;;;27.92;39.23
62847;BME280;49477;35.676;139.586;2023-04-30T12:43:03;100235.47;;;27.66;39.37
62847;BME280;49477;35.676;139.586;2023-04-30T12:45:49;100232.77;;;27.63;39.34
62847;BME280;49477;35.676;139.586;2023-04-30T12:48:20;100228.05;;;27.82;39.27
62847;BME280;49477;35.676;139.586;2023-04-30T12:50:53;100233.69;;;27.60;39.01
62847;BME280;49477;35.676;139.586;2023-04-30T12:53:23;100239.81;;;28.06;38.97
62847;BME280;49477;35.676;139.586;2023-04-30T12:56:16;100236.14;;;27.57;38.86
62847;BME280;49477;35.676;139.586;2023-04-30T12:58:46;100231.38;;;27.55;38.81